Time;durP1;ratioP1;P1;durP2;ratioP2;P2;SDS_P1;SDS_P2;PMS_P1;PMS_P2;Temp;Humidity;BMP_temperature;BMP_pressure;BME280_temperature;BME280_humidity;BME280_pressure;Samples;Min_cycle;Max_cycle;Signal;HPM_P1;HPM_P2
2022/08/04 00:00:17;;;;;;;7.13;6.43;;;24.90;76.00;;;;;;4992946;28;20964;-78
2022/08/04 00:02:56;;;;;;;8.87;7.10;;;24.90;76.50;;;;;;4995161;28;20445;-77
2022/08/04 00:05:34;;;;;;;9.50;6.60;;;24.90;76.40;;;;;;4993241;28;20455;-77
2022/08/04 00:08:11;;;;;;;7.50;6.73;;;24.90;76.10;;;;;;4993991;28;20440;-78
2022/08/04 00:10:39;;;;;;;11.50;6.80;;;24.80;76.10;;;;;;4993879;28;20442;-78
2022/08/04 00:13:09;;;;;;;11.90;7.83;;;24.80;76.20;;;;;;4994476;28;20438;-77
2022/08/04 00:15:37;;;;;;;10.93;7.73;;;24.80;76.60;;;;;;4994645;28;20490;-78
2022/08/04 00:18:06;;;;;;;7.93;7.10;;;24.70;77.10;;;;;;4998644;28;20444;-77
2022/08/04 00:20:34;;;;;;;13.40;8.43;;;24.70;77.10;;;;;;5016583;28;20435;-77
2022/08/04 00:23:02;;;;;;;8.43;6.77;;;24.70;77.30;;;;;;5016881;28;20443;-77
2022/08/04 00:25:29;;;;;;;15.10;8.10;;;24.70;77.20;;;;;;4995709;28;20490;-77
2022/08/04 00:27:56;;;;;;;10.83;7.23;;;24.70;77.40;;;;;;4995691;28;20994;-77
2022/08/04 00:30:25;;;;;;;14.43;7.83;;;24.70;77.50;;;;;;4996269;28;20459;-77
2022/08/04 00:32:52;;;;;;;8.20;7.40;;;24.70;77.70;;;;;;4997195;28;20447;-78
2022/08/04 00:35:19;;;;;;;9.10;7.57;;;24.60;77.90;;;;;;4994850;28;20905;-78
2022/08/04 00:37:46;;;;;;;8.53;7.53;;;24.50;77.90;;;;;;4995082;28;20451;-78
2022/08/04 00:40:23;;;;;;;10.03;8.93;;;24.50;78.50;;;;;;4995256;28;21005;-78
2022/08/04 00:42:59;;;;;;;9.03;7.97;;;24.50;78.90;;;;;;4995737;28;20443;-78
2022/08/04 00:45:52;;;;;;;9.33;8.33;;;24.50;79.30;;;;;;4995411;28;21082;-78
2022/08/04 00:48:33;;;;;;;14.43;6.70;;;24.50;79.90;;;;;;4996757;28;20509;-78
2022/08/04 00:51:10;;;;;;;7.83;7.03;;;24.40;80.10;;;;;;4996865;28;20482;-78
2022/08/04 00:53:53;;;;;;;15.37;8.07;;;24.40;80.70;;;;;;4996467;28;20451;-78
2022/08/04 00:56:46;;;;;;;8.23;7.43;;;24.30;80.80;;;;;;4995806;28;20491;-78
2022/08/04 00:59:19;;;;;;;6.43;5.80;;;24.20;81.20;;;;;;4995980;28;20459;-78
2022/08/04 01:01:58;;;;;;;7.00;6.30;;;24.20;81.50;;;;;;4996117;28;20455;-78
2022/08/04 01:04:44;;;;;;;8.40;6.23;;;24.20;81.60;;;;;;4996178;28;20513;-78
2022/08/04 01:07:25;;;;;;;10.63;7.87;;;24.20;81.90;;;;;;5000462;28;20586;-78
2022/08/04 01:09:59;;;;;;;9.10;8.30;;;24.10;82.30;;;;;;5000177;28;20459;-78
2022/08/04 01:12:43;;;;;;;10.13;6.30;;;24.10;83.00;;;;;;4997388;28;20904;-79
2022/08/04 01:15:18;;;;;;;11.63;7.07;;;24.10;82.10;;;;;;4997860;28;20451;-79
2022/08/04 01:17:58;;;;;;;8.27;7.47;;;24.10;82.60;;;;;;5006363;23;20524;-84
2022/08/04 01:20:26;;;;;;;9.00;6.90;;;24.00;83.40;;;;;;4983136;28;20441;-84
2022/08/04 01:23:30;;;;;;;9.03;7.30;;;23.90;83.80;;;;;;4986450;28;20448;-84
2022/08/04 01:26:20;;;;;;;8.77;7.17;;;23.90;84.00;;;;;;4975869;28;20435;-84
2022/08/04 01:29:13;;;;;;;8.17;6.17;;;23.90;83.60;;;;;;4978626;28;20463;-84
2022/08/04 01:31:53;;;;;;;12.03;7.30;;;23.80;83.80;;;;;;4961565;28;20530;-84
2022/08/04 01:34:21;;;;;;;9.50;6.73;;;23.80;84.30;;;;;;4977273;28;20444;-84
2022/08/04 01:36:58;;;;;;;6.63;5.83;;;23.80;84.20;;;;;;4977905;28;20495;-84
2022/08/04 01:39:42;;;;;;;7.57;5.70;;;23.80;84.60;;;;;;4977607;28;20539;-84
2022/08/04 01:42:11;;;;;;;8.23;5.97;;;23.70;84.00;;;;;;4977666;28;20800;-84
2022/08/04 01:44:40;;;;;;;9.90;5.77;;;23.70;84.40;;;;;;4987045;28;20429;-83
2022/08/04 01:47:08;;;;;;;8.07;5.97;;;23.60;84.50;;;;;;4998377;28;20487;-84
2022/08/04 01:49:39;;;;;;;6.83;6.07;;;23.60;84.80;;;;;;4995746;28;20479;-84
2022/08/04 01:52:09;;;;;;;6.53;5.90;;;23.70;85.20;;;;;;4977328;28;20472;-84
2022/08/04 01:54:39;;;;;;;7.20;5.90;;;23.60;85.30;;;;;;4984040;28;20437;-84
2022/08/04 01:57:06;;;;;;;7.43;5.77;;;23.60;85.60;;;;;;4993210;28;20523;-83
2022/08/04 01:59:35;;;;;;;10.03;6.73;;;23.60;85.60;;;;;;4994988;28;20434;-83
2022/08/04 02:02:04;;;;;;;7.23;5.40;;;23.60;85.50;;;;;;4995780;28;20444;-84
2022/08/04 02:04:30;;;;;;;7.60;5.57;;;23.60;85.80;;;;;;4995322;28;20456;-83
2022/08/04 02:07:07;;;;;;;6.77;6.07;;;23.60;86.00;;;;;;4994615;28;20460;-84
2022/08/04 02:09:41;;;;;;;5.70;5.10;;;23.50;86.10;;;;;;4995212;28;20440;-84
2022/08/04 02:12:19;;;;;;;6.80;5.60;;;23.50;86.40;;;;;;4993155;28;20445;-84
2022/08/04 02:14:58;;;;;;;5.93;5.33;;;23.40;86.50;;;;;;4978533;28;20833;-84
2022/08/04 02:17:32;;;;;;;6.30;5.70;;;23.40;86.90;;;;;;4978765;28;20504;-84
2022/08/04 02:20:07;;;;;;;7.90;5.13;;;23.30;87.10;;;;;;4982627;28;20441;-83
2022/08/04 02:22:37;;;;;;;6.20;5.47;;;23.30;87.50;;;;;;4996917;28;20428;-83
2022/08/04 02:25:07;;;;;;;7.50;6.07;;;23.30;87.30;;;;;;4989209;28;20453;-84
2022/08/04 02:27:55;;;;;;;5.90;5.30;;;23.30;87.80;;;;;;4979738;28;20555;-84
2022/08/04 02:30:25;;;;;;;6.07;5.47;;;23.30;88.10;;;;;;4981651;28;20444;-84
2022/08/04 02:32:57;;;;;;;6.50;5.10;;;23.20;88.60;;;;;;4982205;28;20519;-84
2022/08/04 02:35:27;;;;;;;8.63;5.90;;;23.20;88.40;;;;;;4981157;28;20445;-84
2022/08/04 02:38:06;;;;;;;7.40;5.93;;;23.30;88.40;;;;;;4988798;28;20495;-85
2022/08/04 02:40:33;;;;;;;12.53;6.10;;;23.20;89.00;;;;;;4995487;28;20436;-84
2022/08/04 02:43:07;;;;;;;7.50;5.83;;;23.10;89.10;;;;;;4991210;28;20441;-84
2022/08/04 02:45:36;;;;;;;6.73;6.13;;;23.10;90.30;;;;;;4980620;28;20507;-84
2022/08/04 02:48:08;;;;;;;7.77;6.30;;;23.10;89.80;;;;;;4982754;28;20464;-85
2022/08/04 02:50:37;;;;;;;7.23;6.53;;;23.10;90.00;;;;;;4985674;28;20468;-84
2022/08/04 02:53:05;;;;;;;6.97;5.87;;;23.10;90.10;;;;;;4984599;28;20452;-83
2022/08/04 02:55:33;;;;;;;8.30;6.37;;;23.00;90.20;;;;;;4980533;28;20444;-84
2022/08/04 02:58:03;;;;;;;5.80;4.93;;;23.00;90.50;;;;;;4979419;28;20495;-84
2022/08/04 03:00:30;;;;;;;7.10;6.40;;;22.90;90.60;;;;;;4980346;28;20480;-84
2022/08/04 03:03:13;;;;;;;6.43;5.83;;;22.80;90.90;;;;;;4979010;28;20455;-84
2022/08/04 03:05:54;;;;;;;7.67;6.40;;;22.80;91.20;;;;;;4982657;28;20440;-84
2022/08/04 03:09:00;;;;;;;8.37;6.60;;;22.70;91.60;;;;;;4991140;28;20451;-84
2022/08/04 03:11:58;;;;;;;11.03;7.40;;;22.60;91.90;;;;;;4957031;28;20448;-84
2022/08/04 03:14:46;;;;;;;11.30;7.00;;;22.60;92.50;;;;;;4976099;28;20452;-84
2022/08/04 03:17:31;;;;;;;10.20;6.73;;;22.60;92.70;;;;;;4980309;28;21035;-84
2022/08/04 03:20:22;;;;;;;12.90;7.57;;;22.60;92.90;;;;;;4981382;28;20452;-84
2022/08/04 03:23:24;;;;;;;12.10;7.33;;;22.50;93.20;;;;;;4980773;28;20863;-83
2022/08/04 03:26:36;;;;;;;8.77;6.80;;;22.40;93.70;;;;;;4948562;28;20444;-84
2022/08/04 03:29:38;;;;;;;10.47;6.70;;;22.40;94.30;;;;;;4983039;28;20499;-84
2022/08/04 03:32:46;;;;;;;10.43;8.20;;;22.30;94.60;;;;;;4988391;28;20455;-84
2022/08/04 03:36:07;;;;;;;9.40;7.20;;;22.20;94.90;;;;;;4995954;28;20455;-84
2022/08/04 03:39:02;;;;;;;11.90;7.70;;;22.20;95.40;;;;;;4993127;28;20444;-86
2022/08/04 03:42:07;;;;;;;11.20;7.90;;;22.10;95.70;;;;;;4993567;28;20436;-85
2022/08/04 03:45:08;;;;;;;9.53;8.30;;;22.20;95.50;;;;;;4986961;28;20867;-84
2022/08/04 03:47:59;;;;;;;8.90;7.77;;;22.40;95.60;;;;;;4988315;28;20463;-84
2022/08/04 03:54:26;;;;;;;8.43;7.63;;;22.30;95.70;;;;;;4956674;28;20491;-84
2022/08/04 03:57:19;;;;;;;8.20;7.40;;;22.20;95.80;;;;;;4979091;28;20494;-84
2022/08/04 04:00:01;;;;;;;18.80;8.63;;;22.20;95.80;;;;;;4986640;28;20464;-84
2022/08/04 04:02:44;;;;;;;8.67;7.73;;;22.20;96.10;;;;;;4984437;28;20437;-84
2022/08/04 04:05:44;;;;;;;9.47;7.20;;;22.20;96.30;;;;;;4982265;28;20838;-86
2022/08/04 04:08:46;;;;;;;8.10;5.57;;;22.10;96.30;;;;;;4983675;28;20533;-85
2022/08/04 04:11:50;;;;;;;7.60;6.80;;;22.10;96.40;;;;;;4952112;28;20456;-84
2022/08/04 04:14:46;;;;;;;7.70;6.47;;;22.10;97.00;;;;;;4978085;28;20447;-85
2022/08/04 04:17:45;;;;;;;11.70;6.60;;;22.10;96.80;;;;;;4977393;28;20491;-84
2022/08/04 04:20:41;;;;;;;7.33;6.43;;;22.10;97.10;;;;;;4976921;28;20452;-85
2022/08/04 04:23:21;;;;;;;6.33;5.70;;;22.10;97.10;;;;;;4989895;28;20453;-85
2022/08/04 04:26:03;;;;;;;10.20;6.67;;;22.00;97.20;;;;;;4994423;28;20451;-85
2022/08/04 04:28:48;;;;;;;8.97;6.30;;;22.10;97.40;;;;;;4982721;28;20449;-85
2022/08/04 04:31:43;;;;;;;12.93;8.17;;;22.10;97.40;;;;;;4980664;28;20804;-85
2022/08/04 04:34:21;;;;;;;12.20;7.30;;;22.10;97.70;;;;;;4995314;28;20456;-85
2022/08/04 04:37:01;;;;;;;12.60;6.67;;;22.20;97.80;;;;;;4990267;28;20492;-85
2022/08/04 04:39:36;;;;;;;12.73;6.93;;;22.30;98.00;;;;;;4982205;28;20452;-85
2022/08/04 04:42:24;;;;;;;10.33;6.27;;;22.30;98.20;;;;;;4984523;28;20480;-86
2022/08/04 04:45:14;;;;;;;8.37;5.60;;;22.30;98.30;;;;;;4979384;28;20502;-85
2022/08/04 04:47:49;;;;;;;13.20;6.90;;;22.30;98.50;;;;;;4979658;28;20453;-84
2022/08/04 04:50:28;;;;;;;18.97;8.10;;;22.30;98.40;;;;;;4996395;28;20447;-85
2022/08/04 04:53:02;;;;;;;8.67;6.57;;;22.40;98.60;;;;;;4984405;28;20455;-85
2022/08/04 04:55:35;;;;;;;11.97;7.37;;;22.40;98.50;;;;;;4989164;28;20431;-85
2022/08/04 04:58:02;;;;;;;7.90;6.43;;;22.50;98.30;;;;;;4986826;28;20496;-85
2022/08/04 05:00:44;;;;;;;11.50;7.00;;;22.40;98.20;;;;;;4981489;28;20464;-85
2022/08/04 05:03:40;;;;;;;7.87;6.53;;;22.50;97.90;;;;;;4975986;28;20831;-85
2022/08/04 05:06:33;;;;;;;11.53;7.23;;;22.60;97.80;;;;;;4974650;28;20468;-85
2022/08/04 05:09:11;;;;;;;11.70;7.30;;;22.80;98.10;;;;;;4958958;28;20469;-85
2022/08/04 05:12:05;;;;;;;11.43;7.13;;;23.30;96.80;;;;;;4956672;29;20449;-85
2022/08/04 05:14:37;;;;;;;10.53;7.40;;;23.80;95.30;;;;;;4967119;28;20469;-85
2022/08/04 05:17:15;;;;;;;8.93;6.40;;;24.30;93.90;;;;;;4979170;28;20488;-85
2022/08/04 05:19:51;;;;;;;12.93;6.73;;;24.80;92.50;;;;;;4976333;28;20449;-85
2022/08/04 05:22:22;;;;;;;10.40;7.30;;;25.30;91.40;;;;;;4976015;28;20452;-85
2022/08/04 05:25:00;;;;;;;9.90;7.97;;;25.70;90.00;;;;;;4973729;28;20980;-84
2022/08/04 05:27:31;;;;;;;9.37;7.43;;;26.10;87.10;;;;;;4973921;28;21011;-84
2022/08/04 05:30:03;;;;;;;8.33;7.53;;;26.40;84.50;;;;;;4974870;28;20448;-85
2022/08/04 05:32:38;;;;;;;8.73;6.90;;;26.70;83.80;;;;;;4973771;28;20489;-85
2022/08/04 05:35:09;;;;;;;10.33;6.00;;;27.00;81.80;;;;;;4974329;28;20811;-85
2022/08/04 05:37:39;;;;;;;8.50;5.97;;;27.20;80.30;;;;;;4973906;28;20542;-85
2022/08/04 05:40:08;;;;;;;7.97;6.20;;;27.40;78.50;;;;;;4975283;28;20554;-86
2022/08/04 05:42:38;;;;;;;8.10;6.50;;;27.70;76.80;;;;;;4974030;28;20838;-85
2022/08/04 05:45:07;;;;;;;8.70;5.63;;;27.90;75.00;;;;;;4973314;28;20452;-85
2022/08/04 05:47:36;;;;;;;10.43;5.60;;;28.00;74.30;;;;;;4974225;28;20465;-86
2022/08/04 05:50:06;;;;;;;5.57;5.07;;;28.20;73.10;;;;;;4973860;28;20441;-86
2022/08/04 05:52:36;;;;;;;6.67;5.20;;;28.20;72.70;;;;;;4973442;28;20454;-86
2022/08/04 05:55:04;;;;;;;6.60;6.00;;;28.30;72.30;;;;;;4984918;28;20465;-85
2022/08/04 05:57:31;;;;;;;9.90;5.23;;;28.40;71.10;;;;;;4995879;28;20472;-86
2022/08/04 06:00:01;;;;;;;10.20;6.40;;;28.70;70.50;;;;;;4995242;28;20447;-86
2022/08/04 06:02:30;;;;;;;9.10;5.53;;;28.90;69.80;;;;;;4995968;28;20423;-86
2022/08/04 06:05:00;;;;;;;6.93;5.67;;;29.20;68.40;;;;;;5001421;28;20432;-87
2022/08/04 06:07:27;;;;;;;8.90;5.70;;;29.50;66.90;;;;;;4984584;28;20462;-86
2022/08/04 06:09:54;;;;;;;11.63;5.30;;;29.90;65.60;;;;;;4989352;28;20441;-86
2022/08/04 06:12:25;;;;;;;8.67;6.20;;;30.40;63.70;;;;;;4988665;28;20455;-84
2022/08/04 06:14:54;;;;;;;13.40;4.93;;;30.30;62.30;;;;;;4980986;28;20506;-87
2022/08/04 06:17:24;;;;;;;8.60;5.30;;;30.20;62.10;;;;;;4980295;28;20488;-87
2022/08/04 06:19:53;;;;;;;7.57;5.40;;;30.50;61.50;;;;;;4981259;28;20497;-87
2022/08/04 06:22:23;;;;;;;6.27;5.40;;;30.70;61.00;;;;;;4980402;28;20466;-87
2022/08/04 06:24:51;;;;;;;9.20;5.53;;;31.00;59.20;;;;;;4979802;28;20545;-86
2022/08/04 06:27:19;;;;;;;8.53;4.40;;;31.30;58.30;;;;;;4981607;28;20473;-87
2022/08/04 06:29:49;;;;;;;9.67;4.97;;;31.50;57.80;;;;;;4986681;28;20453;-86
2022/08/04 06:32:26;;;;;;;7.47;5.13;;;32.10;56.40;;;;;;4991387;28;20937;-87
2022/08/04 06:34:55;;;;;;;8.40;4.50;;;32.40;55.20;;;;;;4979649;28;20931;-86
2022/08/04 06:37:26;;;;;;;6.50;4.07;;;32.60;54.30;;;;;;4983912;28;20566;-84
2022/08/04 06:39:53;;;;;;;8.27;5.23;;;33.00;54.00;;;;;;4986783;28;20443;-84
2022/08/04 06:42:22;;;;;;;5.70;4.73;;;33.50;52.60;;;;;;4990613;28;20455;-83
2022/08/04 06:44:50;;;;;;;7.30;4.60;;;33.30;52.00;;;;;;4985467;28;20457;-85
2022/08/04 06:47:19;;;;;;;10.93;4.33;;;33.70;51.80;;;;;;4982377;28;20520;-84
2022/08/04 06:49:48;;;;;;;6.53;4.20;;;34.00;50.20;;;;;;4983216;28;20968;-83
2022/08/04 06:52:16;;;;;;;8.37;3.97;;;33.90;50.20;;;;;;4982392;28;20454;-84
2022/08/04 06:54:45;;;;;;;4.60;3.70;;;34.40;49.80;;;;;;4980812;28;20489;-83
2022/08/04 06:57:14;;;;;;;7.80;3.60;;;34.30;48.90;;;;;;4981455;28;20473;-84
2022/08/04 06:59:42;;;;;;;5.13;3.63;;;34.60;48.40;;;;;;4980257;28;20529;-83
2022/08/04 07:02:14;;;;;;;4.77;3.53;;;34.20;49.00;;;;;;4989624;28;20454;-84
2022/08/04 07:04:42;;;;;;;9.03;4.00;;;34.20;49.40;;;;;;4985862;28;20447;-83
2022/08/04 07:07:09;;;;;;;8.73;3.70;;;35.00;48.60;;;;;;4982306;28;20471;-83
2022/08/04 07:09:36;;;;;;;5.17;3.87;;;35.40;47.50;;;;;;4983695;28;20455;-85
2022/08/04 07:12:05;;;;;;;5.80;4.17;;;35.50;47.50;;;;;;4982767;28;20478;-83
2022/08/04 07:14:34;;;;;;;6.37;3.33;;;36.10;46.30;;;;;;4985290;28;20443;-83
2022/08/04 07:17:03;;;;;;;4.40;3.40;;;36.20;45.50;;;;;;4980795;28;20532;-83
2022/08/04 07:19:31;;;;;;;4.97;3.27;;;36.50;45.20;;;;;;4976319;28;20514;-83
2022/08/04 07:21:59;;;;;;;5.47;3.47;;;37.10;45.00;;;;;;4976335;28;20538;-83
2022/08/04 07:24:30;;;;;;;5.50;4.07;;;37.50;43.40;;;;;;4976256;28;20451;-83
2022/08/04 07:26:57;;;;;;;9.43;4.13;;;38.00;42.60;;;;;;4976406;28;20525;-83
2022/08/04 07:29:25;;;;;;;4.03;3.57;;;38.30;42.20;;;;;;4974137;28;20531;-83
2022/08/04 07:31:53;;;;;;;5.17;3.77;;;38.40;41.50;;;;;;4976593;28;20860;-84
2022/08/04 07:34:20;;;;;;;5.73;4.00;;;38.00;41.70;;;;;;4978535;28;20453;-89
2022/08/04 07:36:47;;;;;;;4.03;3.43;;;38.00;42.20;;;;;;4977085;28;20455;-85
2022/08/04 07:39:14;;;;;;;4.47;3.63;;;37.90;42.30;;;;;;4980671;28;20480;-84
2022/08/04 07:41:42;;;;;;;4.70;4.20;;;38.40;42.00;;;;;;4984354;28;20469;-83
2022/08/04 07:44:10;;;;;;;6.33;3.60;;;38.10;41.60;;;;;;4984950;28;20448;-83
2022/08/04 07:46:38;;;;;;;8.53;3.70;;;38.30;41.90;;;;;;4976449;28;20476;-84
2022/08/04 07:49:05;;;;;;;4.57;3.77;;;38.70;41.30;;;;;;4976899;28;20461;-84
2022/08/04 07:51:34;;;;;;;9.33;4.67;;;39.30;40.50;;;;;;4976755;28;20449;-84
2022/08/04 07:54:02;;;;;;;4.13;3.70;;;39.90;39.80;;;;;;4975418;28;20480;-85
2022/08/04 07:56:32;;;;;;;4.67;3.57;;;40.00;38.90;;;;;;4977264;28;21000;-87
2022/08/04 07:59:00;;;;;;;5.30;3.90;;;40.40;38.60;;;;;;4993817;28;20457;-86
2022/08/04 08:01:27;;;;;;;5.20;3.87;;;39.90;38.50;;;;;;4997488;28;20460;-84
2022/08/04 08:03:59;;;;;;;4.00;3.60;;;40.40;38.60;;;;;;4995997;28;20540;-83
2022/08/04 08:06:28;;;;;;;4.20;3.80;;;40.90;37.50;;;;;;4995891;28;20528;-83
2022/08/04 08:08:54;;;;;;;3.67;3.00;;;41.20;36.70;;;;;;4984974;28;20509;-85
2022/08/04 08:11:21;;;;;;;4.73;3.60;;;40.60;36.60;;;;;;4975748;28;20452;-85
2022/08/04 08:13:48;;;;;;;3.20;2.90;;;40.40;37.20;;;;;;4975609;28;20445;-85
2022/08/04 08:16:17;;;;;;;3.67;3.37;;;40.00;37.50;;;;;;4975501;28;20475;-86
2022/08/04 08:18:44;;;;;;;4.93;3.33;;;40.10;37.60;;;;;;4974483;28;20527;-84
2022/08/04 08:21:12;;;;;;;4.23;3.37;;;40.50;36.60;;;;;;4976585;28;20460;-85
2022/08/04 08:23:40;;;;;;;3.50;3.20;;;39.60;38.50;;;;;;4975001;28;20441;-85
2022/08/04 08:26:07;;;;;;;3.93;2.63;;;40.20;36.90;;;;;;4971937;28;20527;-86
2022/08/04 08:28:34;;;;;;;4.90;3.67;;;40.60;36.30;;;;;;4974390;28;20532;-85
2022/08/04 08:31:01;;;;;;;4.50;3.10;;;40.90;35.80;;;;;;4974407;28;20798;-85
2022/08/04 08:33:28;;;;;;;4.97;3.00;;;40.80;35.70;;;;;;4972893;28;20444;-87
2022/08/04 08:36:04;;;;;;;4.97;3.10;;;41.10;35.60;;;;;;4973570;28;20456;-86
2022/08/04 08:38:47;;;;;;;5.33;2.73;;;41.60;34.90;;;;;;4973638;28;20483;-87
2022/08/04 08:41:39;;;;;;;6.80;3.40;;;42.10;34.40;;;;;;4971744;28;20558;-86
2022/08/04 08:44:32;;;;;;;8.57;3.20;;;42.20;33.20;;;;;;4972862;28;20533;-87
2022/08/04 08:47:09;;;;;;;7.70;3.20;;;42.90;32.80;;;;;;4972713;28;20461;-88
2022/08/04 08:53:25;;;;;;;3.63;2.53;;;43.50;32.00;;;;;;5504730;23;20504;-93
2022/08/04 08:56:28;;;;;;;4.23;3.20;;;44.30;30.50;;;;;;4998313;28;20439;-92
2022/08/04 09:03:06;;;;;;;4.50;3.33;;;45.20;29.60;;;;;;5091768;23;20502;-84
2022/08/04 09:06:10;;;;;;;3.70;2.73;;;44.70;29.90;;;;;;4978041;28;20440;-85
2022/08/04 09:08:55;;;;;;;4.00;2.83;;;45.10;29.80;;;;;;4902493;29;20479;-85
2022/08/04 09:11:25;;;;;;;5.63;2.80;;;44.90;29.90;;;;;;4955194;28;20448;-84
2022/08/04 09:13:57;;;;;;;5.17;3.03;;;44.90;29.90;;;;;;4969595;28;20465;-84
2022/08/04 09:16:31;;;;;;;9.20;3.87;;;45.60;29.50;;;;;;4965716;28;20460;-84
2022/08/04 09:19:09;;;;;;;6.90;3.37;;;45.30;28.40;;;;;;4953845;29;20817;-84
2022/08/04 09:21:41;;;;;;;4.37;2.90;;;45.10;29.20;;;;;;4962575;28;20453;-84
2022/08/04 09:24:14;;;;;;;4.30;3.60;;;45.20;29.40;;;;;;4963781;28;20437;-84
2022/08/04 09:26:51;;;;;;;3.50;2.63;;;44.90;29.10;;;;;;4966415;28;20465;-84
2022/08/04 09:29:27;;;;;;;7.37;2.90;;;45.60;29.50;;;;;;4958667;28;20485;-85
2022/08/04 09:32:01;;;;;;;4.70;3.10;;;45.30;29.00;;;;;;4962317;28;20437;-85
2022/08/04 09:34:43;;;;;;;3.67;3.37;;;46.10;28.50;;;;;;4952056;29;20449;-86
2022/08/04 09:37:20;;;;;;;3.07;2.80;;;46.00;28.20;;;;;;4961592;28;20561;-84
2022/08/04 09:39:56;;;;;;;3.90;3.37;;;45.90;28.60;;;;;;4956654;28;20449;-86
2022/08/04 09:42:33;;;;;;;3.70;3.20;;;46.30;28.20;;;;;;4960139;28;20525;-85
2022/08/04 09:45:06;;;;;;;5.60;4.03;;;46.40;27.90;;;;;;4960149;29;20816;-85
2022/08/04 09:47:39;;;;;;;3.73;3.33;;;46.40;27.80;;;;;;4970584;28;20462;-85
2022/08/04 09:50:21;;;;;;;7.10;3.57;;;46.60;27.80;;;;;;4963418;28;20495;-85
2022/08/04 09:52:58;;;;;;;5.00;3.47;;;46.80;27.30;;;;;;4952755;29;20449;-86
2022/08/04 09:55:35;;;;;;;5.63;3.17;;;47.40;27.00;;;;;;4964105;28;20484;-85
2022/08/04 09:58:08;;;;;;;4.27;3.43;;;46.50;27.40;;;;;;4962437;28;20472;-86
2022/08/04 10:00:43;;;;;;;4.73;3.87;;;46.80;27.30;;;;;;4964167;28;20450;-85
2022/08/04 10:03:12;;;;;;;3.73;3.10;;;46.70;27.00;;;;;;4972555;28;20523;-84
2022/08/04 10:06:00;;;;;;;4.03;3.00;;;46.40;27.10;;;;;;4976905;28;20477;-85
2022/08/04 10:08:43;;;;;;;5.00;3.10;;;46.70;27.20;;;;;;4968260;29;20536;-85
2022/08/04 10:11:21;;;;;;;3.90;3.43;;;46.00;27.40;;;;;;4978370;28;20452;-85
2022/08/04 10:13:55;;;;;;;4.70;3.63;;;45.50;27.80;;;;;;4954055;29;20508;-85
2022/08/04 10:16:36;;;;;;;4.33;3.20;;;45.20;28.50;;;;;;4964195;28;20460;-84
2022/08/04 10:19:15;;;;;;;3.03;2.73;;;46.40;26.90;;;;;;4962684;28;20611;-85
2022/08/04 10:21:54;;;;;;;4.40;3.07;;;47.40;25.60;;;;;;4954421;29;20446;-86
2022/08/04 10:24:32;;;;;;;4.60;3.80;;;47.20;25.50;;;;;;4963166;28;20438;-85
2022/08/04 10:27:05;;;;;;;2.77;2.57;;;47.50;25.30;;;;;;4954994;29;20548;-86
2022/08/04 10:29:41;;;;;;;3.60;3.20;;;47.40;25.30;;;;;;4954809;29;21054;-85
2022/08/04 10:32:15;;;;;;;3.03;2.73;;;47.60;24.40;;;;;;4962684;28;20444;-85
2022/08/04 10:34:48;;;;;;;3.53;3.13;;;47.70;25.00;;;;;;4965536;28;20448;-86
2022/08/04 10:37:23;;;;;;;2.60;2.40;;;47.90;24.30;;;;;;4955846;29;20501;-86
2022/08/04 10:42:48;;;;;;;2.73;2.50;;;49.20;23.80;;;;;;4965260;28;20424;-87
2022/08/04 10:45:18;;;;;;;3.50;2.77;;;49.00;23.50;;;;;;4954782;29;20445;-87
2022/08/04 10:47:59;;;;;;;3.30;2.73;;;50.00;23.10;;;;;;4958371;28;20484;-87
2022/08/04 10:50:27;;;;;;;2.40;2.20;;;49.30;22.70;;;;;;4965340;28;20489;-87
2022/08/04 10:53:03;;;;;;;2.27;2.07;;;48.10;22.20;;;;;;4967133;28;20903;-87
2022/08/04 10:55:37;;;;;;;2.67;2.47;;;48.90;22.00;;;;;;4956632;29;20453;-87
2022/08/04 10:58:06;;;;;;;2.90;2.70;;;49.40;21.80;;;;;;4967708;28;20461;-87
2022/08/04 11:00:39;;;;;;;3.10;2.70;;;49.60;21.60;;;;;;4966332;28;20456;-87
2022/08/04 11:03:14;;;;;;;2.30;2.10;;;49.10;21.60;;;;;;4964475;28;20531;-86
2022/08/04 11:05:45;;;;;;;2.87;2.67;;;48.80;21.30;;;;;;4972775;28;20850;-87
2022/08/04 11:08:17;;;;;;;2.73;2.37;;;48.30;22.10;;;;;;4963162;28;20464;-87
2022/08/04 11:10:48;;;;;;;2.70;2.50;;;48.80;21.70;;;;;;4959998;28;20544;-87
2022/08/04 11:13:17;;;;;;;2.90;2.70;;;50.70;21.40;;;;;;4956231;29;20815;-88
2022/08/04 11:15:49;;;;;;;2.20;2.00;;;51.00;21.10;;;;;;4955121;29;20445;-88
2022/08/04 11:18:34;;;;;;;2.27;2.17;;;51.20;20.90;;;;;;4956182;29;20450;-88
2022/08/04 11:21:11;;;;;;;2.33;2.13;;;49.90;21.00;;;;;;4956070;29;20457;-85
2022/08/04 11:23:47;;;;;;;4.83;2.70;;;50.60;21.40;;;;;;4971754;28;20436;-86
2022/08/04 11:26:19;;;;;;;3.10;2.30;;;50.80;20.70;;;;;;4959694;29;21715;-84
2022/08/04 11:28:53;;;;;;;3.00;2.70;;;50.80;20.40;;;;;;4956262;29;20810;-86
2022/08/04 11:31:25;;;;;;;2.70;2.50;;;50.90;20.60;;;;;;4961233;28;20446;-85
2022/08/04 11:33:59;;;;;;;3.90;2.50;;;50.90;20.30;;;;;;4966256;28;20477;-85
2022/08/04 11:36:34;;;;;;;2.57;2.37;;;50.80;20.70;;;;;;4960442;28;20453;-87
2022/08/04 11:39:10;;;;;;;2.20;2.00;;;50.70;20.70;;;;;;4964964;28;20470;-84
2022/08/04 11:41:48;;;;;;;2.70;2.33;;;50.20;20.50;;;;;;4967047;28;20495;-84
2022/08/04 11:44:24;;;;;;;2.50;2.30;;;49.20;20.90;;;;;;4964001;29;20454;-85
2022/08/04 11:46:53;;;;;;;2.20;2.10;;;47.90;21.80;;;;;;4973725;28;20557;-85
2022/08/04 11:49:31;;;;;;;2.70;2.50;;;48.50;22.00;;;;;;4955450;28;21023;-84
2022/08/04 11:52:01;;;;;;;2.93;2.50;;;48.60;21.80;;;;;;4953568;29;20456;-85
2022/08/04 11:54:32;;;;;;;2.83;2.63;;;49.50;21.20;;;;;;4954015;29;20446;-85
2022/08/04 11:56:58;;;;;;;3.00;2.57;;;50.10;20.80;;;;;;4958089;28;20464;-85
2022/08/04 11:59:28;;;;;;;2.60;2.40;;;50.60;20.40;;;;;;4965625;28;20823;-86
2022/08/04 12:02:20;;;;;;;4.63;3.27;;;50.00;20.40;;;;;;4964970;28;20500;-85
2022/08/04 12:04:53;;;;;;;3.67;2.67;;;49.60;20.70;;;;;;4954421;29;20536;-87
2022/08/04 12:07:29;;;;;;;3.23;2.73;;;50.90;20.20;;;;;;4980010;28;20457;-85
2022/08/04 12:10:09;;;;;;;2.83;2.63;;;51.50;19.70;;;;;;4979429;28;20483;-84
2022/08/04 12:12:41;;;;;;;4.53;2.60;;;51.00;19.80;;;;;;4977120;28;20442;-86
2022/08/04 12:15:18;;;;;;;2.30;2.10;;;51.70;19.70;;;;;;4966866;28;20841;-85
2022/08/04 12:18:01;;;;;;;2.83;2.63;;;50.70;19.70;;;;;;4959861;29;20910;-85
2022/08/04 12:20:30;;;;;;;6.60;2.60;;;49.40;20.50;;;;;;4954563;29;20878;-86
2022/08/04 12:22:57;;;;;;;2.50;2.30;;;49.30;21.20;;;;;;4954213;29;20450;-86
2022/08/04 12:25:30;;;;;;;2.77;2.30;;;50.40;20.50;;;;;;4954256;29;20447;-85
2022/08/04 12:28:02;;;;;;;2.90;2.60;;;50.10;20.40;;;;;;4953580;29;20470;-86
2022/08/04 12:30:35;;;;;;;3.40;2.47;;;48.60;20.90;;;;;;4953451;29;20524;-85
2022/08/04 12:33:10;;;;;;;4.27;3.27;;;47.40;21.90;;;;;;4954393;29;20445;-87
2022/08/04 12:35:41;;;;;;;2.50;2.30;;;47.60;22.60;;;;;;4964130;28;20452;-86
2022/08/04 12:38:12;;;;;;;3.77;2.83;;;48.30;21.40;;;;;;4963993;28;20902;-85
2022/08/04 12:40:46;;;;;;;2.90;2.70;;;47.40;22.00;;;;;;4964741;28;20445;-86
2022/08/04 12:43:21;;;;;;;2.60;2.40;;;46.20;22.70;;;;;;4954534;29;20445;-86
2022/08/04 12:45:51;;;;;;;2.80;2.60;;;46.90;22.70;;;;;;4954874;29;20461;-86
2022/08/04 12:48:19;;;;;;;3.30;2.20;;;48.70;21.80;;;;;;4955516;29;20446;-86
2022/08/04 12:50:48;;;;;;;2.80;2.50;;;50.70;20.70;;;;;;4954550;29;20866;-85
2022/08/04 12:53:18;;;;;;;3.10;2.90;;;51.40;19.70;;;;;;4959323;28;20446;-85
2022/08/04 12:55:50;;;;;;;3.10;2.60;;;51.30;19.70;;;;;;4977380;28;20470;-84
2022/08/04 12:58:19;;;;;;;2.67;2.47;;;51.70;19.50;;;;;;4974591;28;21217;-86
2022/08/04 13:00:53;;;;;;;3.27;2.90;;;51.80;19.50;;;;;;4956493;29;20477;-85
2022/08/04 13:03:22;;;;;;;2.90;2.57;;;51.70;19.40;;;;;;4963740;28;20454;-86
2022/08/04 13:05:53;;;;;;;2.87;2.67;;;51.90;18.90;;;;;;4969238;28;20918;-86
2022/08/04 13:08:21;;;;;;;3.53;3.33;;;51.50;19.40;;;;;;4957413;28;20870;-86
2022/08/04 13:10:53;;;;;;;3.97;2.17;;;51.90;19.30;;;;;;4960023;28;20484;-85
2022/08/04 13:13:24;;;;;;;3.40;2.50;;;52.00;19.00;;;;;;4961795;28;20450;-87
2022/08/04 13:15:59;;;;;;;2.53;2.33;;;52.50;18.90;;;;;;4961435;28;20927;-85
2022/08/04 13:18:28;;;;;;;3.03;2.63;;;52.30;18.80;;;;;;4973388;28;20968;-85
2022/08/04 13:20:56;;;;;;;3.40;2.93;;;52.30;18.50;;;;;;4981611;28;20425;-83
2022/08/04 13:23:26;;;;;;;3.93;2.80;;;52.60;18.70;;;;;;4978991;28;20445;-86
2022/08/04 13:25:56;;;;;;;2.87;2.67;;;53.00;18.40;;;;;;4970938;28;20449;-87
2022/08/04 13:28:26;;;;;;;3.90;2.80;;;52.70;18.30;;;;;;4970552;28;20896;-85
2022/08/04 13:30:55;;;;;;;3.83;3.47;;;52.90;18.30;;;;;;4971148;28;20511;-85
2022/08/04 13:33:28;;;;;;;4.33;2.67;;;52.40;18.40;;;;;;4964025;28;20466;-85
2022/08/04 13:35:56;;;;;;;3.00;2.70;;;52.30;18.60;;;;;;4960173;28;20788;-85
2022/08/04 13:38:25;;;;;;;3.40;2.60;;;52.40;18.50;;;;;;4962038;28;20521;-84
2022/08/04 13:40:52;;;;;;;3.23;2.83;;;52.80;18.30;;;;;;4960631;28;20442;-85